sensor_id;sensor_type;location;lat;lon;timestamp;P1;durP1;ratioP1;P2;durP2;ratioP2
11094;SDS011;5601;44.490;11.400;2022-08-19T00:01:26;0.00;;;0.00;;
11094;SDS011;5601;44.490;11.400;2022-08-19T00:03:57;0.00;;;0.00;;
11094;SDS011;5601;44.490;11.400;2022-08-19T00:06:25;0.80;;;0.43;;
11094;SDS011;5601;44.490;11.400;2022-08-19T00:08:52;0.00;;;0.00;;
11094;SDS011;5601;44.490;11.400;2022-08-19T00:11:20;0.40;;;0.40;;
11094;SDS011;5601;44.490;11.400;2022-08-19T00:13:49;1.17;;;0.80;;
11094;SDS011;5601;44.490;11.400;2022-08-19T00:16:17;0.10;;;0.03;;
11094;SDS011;5601;44.490;11.400;2022-08-19T00:18:45;0.77;;;0.53;;
11094;SDS011;5601;44.490;11.400;2022-08-19T00:21:15;0.00;;;0.00;;
11094;SDS011;5601;44.490;11.400;2022-08-19T00:23:44;0.00;;;0.00;;
11094;SDS011;5601;44.490;11.400;2022-08-19T00:26:11;0.00;;;0.00;;
11094;SDS011;5601;44.490;11.400;2022-08-19T00:28:39;0.00;;;0.00;;
11094;SDS011;5601;44.490;11.400;2022-08-19T00:31:08;0.00;;;0.00;;
11094;SDS011;5601;44.490;11.400;2022-08-19T00:33:36;0.20;;;0.10;;
11094;SDS011;5601;44.490;11.400;2022-08-19T00:36:04;0.00;;;0.00;;
11094;SDS011;5601;44.490;11.400;2022-08-19T00:38:37;0.00;;;0.00;;
11094;SDS011;5601;44.490;11.400;2022-08-19T00:41:08;0.10;;;0.10;;
11094;SDS011;5601;44.490;11.400;2022-08-19T00:43:36;0.00;;;0.00;;
11094;SDS011;5601;44.490;11.400;2022-08-19T00:46:05;0.00;;;0.00;;
11094;SDS011;5601;44.490;11.400;2022-08-19T00:48:33;0.00;;;0.00;;
11094;SDS011;5601;44.490;11.400;2022-08-19T00:51:01;0.00;;;0.00;;
11094;SDS011;5601;44.490;11.400;2022-08-19T00:53:30;0.10;;;0.10;;
11094;SDS011;5601;44.490;11.400;2022-08-19T00:56:01;0.00;;;0.00;;
11094;SDS011;5601;44.490;11.400;2022-08-19T00:58:32;0.00;;;0.00;;
11094;SDS011;5601;44.490;11.400;2022-08-19T01:01:01;0.00;;;0.00;;
11094;SDS011;5601;44.490;11.400;2022-08-19T01:03:30;0.00;;;0.00;;
11094;SDS011;5601;44.490;11.400;2022-08-19T01:05:57;0.27;;;0.20;;
11094;SDS011;5601;44.490;11.400;2022-08-19T01:08:25;0.00;;;0.00;;
11094;SDS011;5601;44.490;11.400;2022-08-19T01:10:53;0.27;;;0.27;;
11094;SDS011;5601;44.490;11.400;2022-08-19T01:13:26;0.07;;;0.07;;
11094;SDS011;5601;44.490;11.400;2022-08-19T01:15:59;0.00;;;0.00;;
11094;SDS011;5601;44.490;11.400;2022-08-19T01:18:29;0.00;;;0.00;;
11094;SDS011;5601;44.490;11.400;2022-08-19T01:21:02;0.00;;;0.00;;
11094;SDS011;5601;44.490;11.400;2022-08-19T01:23:36;0.00;;;0.00;;
11094;SDS011;5601;44.490;11.400;2022-08-19T01:26:10;0.03;;;0.03;;
11094;SDS011;5601;44.490;11.400;2022-08-19T01:28:39;0.00;;;0.00;;
11094;SDS011;5601;44.490;11.400;2022-08-19T01:31:07;0.00;;;0.00;;
11094;SDS011;5601;44.490;11.400;2022-08-19T01:33:37;0.00;;;0.00;;
11094;SDS011;5601;44.490;11.400;2022-08-19T01:36:07;0.07;;;0.03;;
11094;SDS011;5601;44.490;11.400;2022-08-19T01:38:38;2.47;;;1.70;;
11094;SDS011;5601;44.490;11.400;2022-08-19T01:41:08;0.00;;;0.00;;
11094;SDS011;5601;44.490;11.400;2022-08-19T01:43:36;3.20;;;1.13;;
11094;SDS011;5601;44.490;11.400;2022-08-19T01:46:03;0.00;;;0.00;;
11094;SDS011;5601;44.490;11.400;2022-08-19T01:48:34;0.03;;;0.03;;
11094;SDS011;5601;44.490;11.400;2022-08-19T01:51:03;0.00;;;0.00;;
11094;SDS011;5601;44.490;11.400;2022-08-19T01:53:32;0.00;;;0.00;;
11094;SDS011;5601;44.490;11.400;2022-08-19T01:56:02;0.00;;;0.00;;
11094;SDS011;5601;44.490;11.400;2022-08-19T01:58:32;0.77;;;0.73;;
11094;SDS011;5601;44.490;11.400;2022-08-19T02:01:04;0.27;;;0.27;;
11094;SDS011;5601;44.490;11.400;2022-08-19T02:03:33;0.00;;;0.00;;
11094;SDS011;5601;44.490;11.400;2022-08-19T02:06:02;0.00;;;0.00;;
11094;SDS011;5601;44.490;11.400;2022-08-19T02:08:30;0.23;;;0.10;;
11094;SDS011;5601;44.490;11.400;2022-08-19T02:10:59;0.00;;;0.00;;
11094;SDS011;5601;44.490;11.400;2022-08-19T02:13:28;0.07;;;0.03;;
11094;SDS011;5601;44.490;11.400;2022-08-19T02:15:56;0.30;;;0.13;;
11094;SDS011;5601;44.490;11.400;2022-08-19T02:18:23;0.00;;;0.00;;
11094;SDS011;5601;44.490;11.400;2022-08-19T02:20:52;0.20;;;0.20;;
11094;SDS011;5601;44.490;11.400;2022-08-19T02:23:19;0.00;;;0.00;;
11094;SDS011;5601;44.490;11.400;2022-08-19T02:25:46;0.00;;;0.00;;
11094;SDS011;5601;44.490;11.400;2022-08-19T02:28:15;0.10;;;0.10;;
11094;SDS011;5601;44.490;11.400;2022-08-19T02:30:44;0.00;;;0.00;;
11094;SDS011;5601;44.490;11.400;2022-08-19T02:33:13;0.00;;;0.00;;
11094;SDS011;5601;44.490;11.400;2022-08-19T02:35:42;0.10;;;0.00;;
11094;SDS011;5601;44.490;11.400;2022-08-19T02:38:10;1.70;;;1.00;;
11094;SDS011;5601;44.490;11.400;2022-08-19T02:40:54;0.30;;;0.10;;
11094;SDS011;5601;44.490;11.400;2022-08-19T02:43:24;0.10;;;0.10;;
11094;SDS011;5601;44.490;11.400;2022-08-19T02:45:54;0.53;;;0.20;;
11094;SDS011;5601;44.490;11.400;2022-08-19T17:13:27;3.38;;;0.88;;
11094;SDS011;5601;44.490;11.400;2022-08-19T17:15:55;1.23;;;0.80;;
11094;SDS011;5601;44.490;11.400;2022-08-19T17:18:23;1.13;;;0.77;;
11094;SDS011;5601;44.490;11.400;2022-08-19T17:20:51;3.08;;;0.80;;
11094;SDS011;5601;44.490;11.400;2022-08-19T17:23:20;4.78;;;0.95;;
11094;SDS011;5601;44.490;11.400;2022-08-19T17:25:49;3.33;;;1.15;;
11094;SDS011;5601;44.490;11.400;2022-08-19T17:28:18;2.22;;;0.80;;
11094;SDS011;5601;44.490;11.400;2022-08-19T17:30:48;2.67;;;1.00;;
11094;SDS011;5601;44.490;11.400;2022-08-19T17:33:15;5.65;;;0.90;;
11094;SDS011;5601;44.490;11.400;2022-08-19T17:35:43;4.15;;;0.80;;
11094;SDS011;5601;44.490;11.400;2022-08-19T17:38:12;2.83;;;0.88;;
11094;SDS011;5601;44.490;11.400;2022-08-19T17:40:41;2.53;;;0.77;;
11094;SDS011;5601;44.490;11.400;2022-08-19T17:43:12;3.15;;;0.50;;
11094;SDS011;5601;44.490;11.400;2022-08-19T17:45:41;1.98;;;0.60;;
11094;SDS011;5601;44.490;11.400;2022-08-19T17:48:10;1.48;;;0.50;;
11094;SDS011;5601;44.490;11.400;2022-08-19T17:50:39;0.98;;;0.50;;
11094;SDS011;5601;44.490;11.400;2022-08-19T17:53:07;2.60;;;0.77;;
11094;SDS011;5601;44.490;11.400;2022-08-19T17:55:35;2.15;;;1.05;;
11094;SDS011;5601;44.490;11.400;2022-08-19T17:58:03;2.88;;;1.17;;
11094;SDS011;5601;44.490;11.400;2022-08-19T18:00:30;2.85;;;1.20;;
11094;SDS011;5601;44.490;11.400;2022-08-19T18:02:59;2.88;;;1.40;;
11094;SDS011;5601;44.490;11.400;2022-08-19T18:05:31;2.45;;;0.65;;
11094;SDS011;5601;44.490;11.400;2022-08-19T18:08:05;3.78;;;0.98;;
11094;SDS011;5601;44.490;11.400;2022-08-19T18:10:33;1.90;;;0.80;;
11094;SDS011;5601;44.490;11.400;2022-08-19T18:13:02;2.13;;;0.93;;
11094;SDS011;5601;44.490;11.400;2022-08-19T18:15:31;2.25;;;0.88;;
11094;SDS011;5601;44.490;11.400;2022-08-19T18:17:59;4.57;;;0.80;;
11094;SDS011;5601;44.490;11.400;2022-08-19T18:20:26;3.92;;;0.90;;
11094;SDS011;5601;44.490;11.400;2022-08-19T18:22:55;2.78;;;0.77;;
11094;SDS011;5601;44.490;11.400;2022-08-19T18:25:24;1.40;;;0.75;;
11094;SDS011;5601;44.490;11.400;2022-08-19T18:27:53;1.65;;;0.93;;
11094;SDS011;5601;44.490;11.400;2022-08-19T18:30:22;1.55;;;0.60;;
11094;SDS011;5601;44.490;11.400;2022-08-19T18:32:50;1.42;;;0.70;;
11094;SDS011;5601;44.490;11.400;2022-08-19T18:35:20;4.15;;;0.70;;
11094;SDS011;5601;44.490;11.400;2022-08-19T18:37:56;3.30;;;1.00;;
11094;SDS011;5601;44.490;11.400;2022-08-19T18:40:25;2.67;;;1.40;;
11094;SDS011;5601;44.490;11.400;2022-08-19T18:43:13;4.35;;;0.95;;
11094;SDS011;5601;44.490;11.400;2022-08-19T18:45:58;6.20;;;1.00;;
11094;SDS011;5601;44.490;11.400;2022-08-19T18:48:42;3.80;;;2.35;;
11094;SDS011;5601;44.490;11.400;2022-08-19T18:51:26;3.55;;;1.02;;
11094;SDS011;5601;44.490;11.400;2022-08-19T18:53:57;2.17;;;0.80;;
11094;SDS011;5601;44.490;11.400;2022-08-19T18:56:26;4.07;;;0.80;;
11094;SDS011;5601;44.490;11.400;2022-08-19T18:58:55;4.28;;;1.20;;
11094;SDS011;5601;44.490;11.400;2022-08-19T19:01:24;3.53;;;0.90;;
11094;SDS011;5601;44.490;11.400;2022-08-19T19:03:54;1.92;;;0.80;;
11094;SDS011;5601;44.490;11.400;2022-08-19T19:06:25;1.58;;;0.90;;
11094;SDS011;5601;44.490;11.400;2022-08-19T19:08:54;2.22;;;1.15;;
11094;SDS011;5601;44.490;11.400;2022-08-19T19:11:25;3.00;;;0.95;;
11094;SDS011;5601;44.490;11.400;2022-08-19T19:13:54;2.70;;;1.05;;
11094;SDS011;5601;44.490;11.400;2022-08-19T19:16:24;2.20;;;0.90;;
11094;SDS011;5601;44.490;11.400;2022-08-19T19:18:51;1.52;;;0.93;;
11094;SDS011;5601;44.490;11.400;2022-08-19T19:21:18;1.60;;;0.90;;
11094;SDS011;5601;44.490;11.400;2022-08-19T19:23:47;4.40;;;1.00;;
11094;SDS011;5601;44.490;11.400;2022-08-19T19:26:15;9.48;;;1.40;;
11094;SDS011;5601;44.490;11.400;2022-08-19T19:28:44;3.10;;;0.90;;
11094;SDS011;5601;44.490;11.400;2022-08-19T19:31:12;2.20;;;0.88;;
11094;SDS011;5601;44.490;11.400;2022-08-19T19:33:42;2.40;;;0.85;;
11094;SDS011;5601;44.490;11.400;2022-08-19T19:36:10;4.83;;;0.90;;
11094;SDS011;5601;44.490;11.400;2022-08-19T19:38:38;3.00;;;0.95;;
11094;SDS011;5601;44.490;11.400;2022-08-19T19:41:08;1.33;;;0.80;;
11094;SDS011;5601;44.490;11.400;2022-08-19T19:43:35;3.38;;;1.10;;
11094;SDS011;5601;44.490;11.400;2022-08-19T19:46:04;2.43;;;0.93;;
11094;SDS011;5601;44.490;11.400;2022-08-19T19:48:32;1.57;;;0.70;;
11094;SDS011;5601;44.490;11.400;2022-08-19T19:51:00;1.73;;;0.70;;
11094;SDS011;5601;44.490;11.400;2022-08-19T19:53:27;2.40;;;0.85;;
11094;SDS011;5601;44.490;11.400;2022-08-19T19:55:55;2.00;;;0.80;;
11094;SDS011;5601;44.490;11.400;2022-08-19T19:58:23;2.00;;;0.60;;
11094;SDS011;5601;44.490;11.400;2022-08-19T20:00:51;2.13;;;1.07;;
11094;SDS011;5601;44.490;11.400;2022-08-19T20:03:20;1.07;;;0.50;;
11094;SDS011;5601;44.490;11.400;2022-08-19T20:05:48;2.93;;;0.50;;
11094;SDS011;5601;44.490;11.400;2022-08-19T20:08:16;3.00;;;0.83;;
11094;SDS011;5601;44.490;11.400;2022-08-19T20:11:02;3.90;;;0.70;;
11094;SDS011;5601;44.490;11.400;2022-08-19T20:13:31;2.10;;;0.80;;
11094;SDS011;5601;44.490;11.400;2022-08-19T20:15:59;0.87;;;0.50;;
11094;SDS011;5601;44.490;11.400;2022-08-19T20:18:29;4.60;;;0.60;;
11094;SDS011;5601;44.490;11.400;2022-08-19T20:20:57;2.77;;;0.70;;
11094;SDS011;5601;44.490;11.400;2022-08-19T20:23:25;2.77;;;0.70;;
11094;SDS011;5601;44.490;11.400;2022-08-19T20:25:53;4.03;;;1.00;;
11094;SDS011;5601;44.490;11.400;2022-08-19T20:28:21;1.87;;;0.80;;
11094;SDS011;5601;44.490;11.400;2022-08-19T20:30:48;3.33;;;0.70;;
11094;SDS011;5601;44.490;11.400;2022-08-19T20:33:16;2.80;;;0.60;;
11094;SDS011;5601;44.490;11.400;2022-08-19T20:35:46;1.50;;;0.67;;
11094;SDS011;5601;44.490;11.400;2022-08-19T20:38:13;1.23;;;0.40;;
11094;SDS011;5601;44.490;11.400;2022-08-19T20:40:41;2.03;;;0.53;;
11094;SDS011;5601;44.490;11.400;2022-08-19T20:43:09;1.10;;;0.60;;
11094;SDS011;5601;44.490;11.400;2022-08-19T20:45:37;1.53;;;0.80;;
11094;SDS011;5601;44.490;11.400;2022-08-19T20:48:06;0.93;;;0.43;;
11094;SDS011;5601;44.490;11.400;2022-08-19T20:50:35;1.60;;;0.53;;
11094;SDS011;5601;44.490;11.400;2022-08-19T20:53:09;3.63;;;1.37;;
11094;SDS011;5601;44.490;11.400;2022-08-19T20:55:37;1.63;;;0.70;;
11094;SDS011;5601;44.490;11.400;2022-08-19T20:58:05;1.93;;;0.70;;
11094;SDS011;5601;44.490;11.400;2022-08-19T21:00:32;1.47;;;0.50;;
11094;SDS011;5601;44.490;11.400;2022-08-19T21:03:00;1.87;;;0.80;;
11094;SDS011;5601;44.490;11.400;2022-08-19T21:05:28;1.97;;;0.73;;
11094;SDS011;5601;44.490;11.400;2022-08-19T21:07:55;2.40;;;0.80;;
11094;SDS011;5601;44.490;11.400;2022-08-19T21:10:24;2.33;;;0.70;;
11094;SDS011;5601;44.490;11.400;2022-08-19T21:12:52;2.23;;;1.10;;
11094;SDS011;5601;44.490;11.400;2022-08-19T21:15:21;1.57;;;1.03;;
11094;SDS011;5601;44.490;11.400;2022-08-19T21:17:49;2.30;;;0.80;;
11094;SDS011;5601;44.490;11.400;2022-08-19T21:20:17;2.50;;;0.97;;
11094;SDS011;5601;44.490;11.400;2022-08-19T21:22:44;1.30;;;0.80;;
11094;SDS011;5601;44.490;11.400;2022-08-19T21:25:12;4.10;;;0.90;;
11094;SDS011;5601;44.490;11.400;2022-08-19T21:27:41;2.37;;;0.90;;
11094;SDS011;5601;44.490;11.400;2022-08-19T21:30:09;3.30;;;0.83;;
11094;SDS011;5601;44.490;11.400;2022-08-19T21:32:37;1.80;;;0.80;;
11094;SDS011;5601;44.490;11.400;2022-08-19T21:35:04;1.30;;;0.70;;
11094;SDS011;5601;44.490;11.400;2022-08-19T21:37:32;1.27;;;0.70;;
11094;SDS011;5601;44.490;11.400;2022-08-19T21:40:03;2.37;;;0.83;;
11094;SDS011;5601;44.490;11.400;2022-08-19T21:42:30;1.87;;;0.73;;
11094;SDS011;5601;44.490;11.400;2022-08-19T21:44:59;2.30;;;0.77;;
11094;SDS011;5601;44.490;11.400;2022-08-19T21:47:27;2.67;;;0.83;;
11094;SDS011;5601;44.490;11.400;2022-08-19T21:49:55;3.03;;;1.00;;
11094;SDS011;5601;44.490;11.400;2022-08-19T21:52:23;2.83;;;0.77;;
11094;SDS011;5601;44.490;11.400;2022-08-19T21:54:52;2.47;;;1.00;;
11094;SDS011;5601;44.490;11.400;2022-08-19T21:57:20;2.43;;;0.90;;
11094;SDS011;5601;44.490;11.400;2022-08-19T21:59:49;2.87;;;1.40;;
11094;SDS011;5601;44.490;11.400;2022-08-19T22:02:18;2.10;;;1.20;;
11094;SDS011;5601;44.490;11.400;2022-08-19T22:04:46;4.13;;;0.80;;
11094;SDS011;5601;44.490;11.400;2022-08-19T22:07:15;2.53;;;0.70;;
11094;SDS011;5601;44.490;11.400;2022-08-19T22:09:42;5.23;;;0.90;;
11094;SDS011;5601;44.490;11.400;2022-08-19T22:12:16;2.63;;;1.07;;
11094;SDS011;5601;44.490;11.400;2022-08-19T22:14:47;2.83;;;0.80;;
11094;SDS011;5601;44.490;11.400;2022-08-19T22:17:14;1.50;;;0.80;;
11094;SDS011;5601;44.490;11.400;2022-08-19T22:19:43;3.30;;;0.73;;
11094;SDS011;5601;44.490;11.400;2022-08-19T22:22:11;1.53;;;0.90;;
11094;SDS011;5601;44.490;11.400;2022-08-19T22:24:38;1.40;;;0.70;;
11094;SDS011;5601;44.490;11.400;2022-08-19T22:27:06;1.30;;;0.83;;
11094;SDS011;5601;44.490;11.400;2022-08-19T22:29:33;1.90;;;0.80;;
11094;SDS011;5601;44.490;11.400;2022-08-19T22:32:02;1.30;;;0.80;;
11094;SDS011;5601;44.490;11.400;2022-08-19T22:34:30;2.27;;;0.97;;
11094;SDS011;5601;44.490;11.400;2022-08-19T22:36:59;1.40;;;0.90;;
11094;SDS011;5601;44.490;11.400;2022-08-19T22:39:26;3.27;;;0.80;;
11094;SDS011;5601;44.490;11.400;2022-08-19T22:41:54;2.77;;;1.00;;
11094;SDS011;5601;44.490;11.400;2022-08-19T22:44:21;3.00;;;1.17;;
11094;SDS011;5601;44.490;11.400;2022-08-19T22:46:49;4.83;;;1.10;;
11094;SDS011;5601;44.490;11.400;2022-08-19T22:49:17;4.53;;;0.83;;
11094;SDS011;5601;44.490;11.400;2022-08-19T22:51:44;3.43;;;0.80;;
11094;SDS011;5601;44.490;11.400;2022-08-19T22:54:31;3.60;;;0.83;;
11094;SDS011;5601;44.490;11.400;2022-08-19T22:56:59;1.50;;;0.80;;
11094;SDS011;5601;44.490;11.400;2022-08-19T22:59:26;1.40;;;0.90;;
11094;SDS011;5601;44.490;11.400;2022-08-19T23:01:54;3.27;;;0.97;;
11094;SDS011;5601;44.490;11.400;2022-08-19T23:04:22;2.97;;;1.07;;
11094;SDS011;5601;44.490;11.400;2022-08-19T23:06:49;1.43;;;0.70;;
11094;SDS011;5601;44.490;11.400;2022-08-19T23:09:17;1.80;;;0.80;;
11094;SDS011;5601;44.490;11.400;2022-08-19T23:11:47;1.63;;;0.90;;
11094;SDS011;5601;44.490;11.400;2022-08-19T23:14:15;1.57;;;0.70;;
11094;SDS011;5601;44.490;11.400;2022-08-19T23:16:44;4.20;;;0.90;;
11094;SDS011;5601;44.490;11.400;2022-08-19T23:19:12;2.10;;;0.60;;
11094;SDS011;5601;44.490;11.400;2022-08-19T23:21:40;3.10;;;0.97;;
11094;SDS011;5601;44.490;11.400;2022-08-19T23:24:08;2.27;;;1.10;;
11094;SDS011;5601;44.490;11.400;2022-08-19T23:26:35;2.87;;;0.87;;
11094;SDS011;5601;44.490;11.400;2022-08-19T23:29:25;2.37;;;0.70;;
11094;SDS011;5601;44.490;11.400;2022-08-19T23:32:10;2.53;;;1.07;;
11094;SDS011;5601;44.490;11.400;2022-08-19T23:34:37;3.70;;;0.80;;
11094;SDS011;5601;44.490;11.400;2022-08-19T23:37:05;2.03;;;0.90;;
11094;SDS011;5601;44.490;11.400;2022-08-19T23:39:33;3.03;;;1.20;;
11094;SDS011;5601;44.490;11.400;2022-08-19T23:42:01;6.70;;;2.40;;
11094;SDS011;5601;44.490;11.400;2022-08-19T23:44:29;3.00;;;1.10;;
11094;SDS011;5601;44.490;11.400;2022-08-19T23:46:57;1.20;;;0.67;;
11094;SDS011;5601;44.490;11.400;2022-08-19T23:49:25;2.87;;;1.00;;
11094;SDS011;5601;44.490;11.400;2022-08-19T23:51:53;1.77;;;0.90;;
11094;SDS011;5601;44.490;11.400;2022-08-19T23:54:20;1.63;;;0.83;;
11094;SDS011;5601;44.490;11.400;2022-08-19T23:56:48;3.13;;;1.10;;
11094;SDS011;5601;44.490;11.400;2022-08-19T23:59:16;6.17;;;1.07;;
